Latest Weather Observations for Dum In Mirrie

IDD60801

Issued at 2:05 pm CST Thursday 24 April 2014 (issued every 30 minutes, with the page automatically refreshed every 10 minutes)

About weather observations | Map of weather stations | Latest weather observations for NT | Other Formats
Station Details ID: 014277 Name: DUM IN MIRRIE AIRSTRIP Lat: -12.63 Lon: 130.37 Height: 3.5 m
Data from the previous 72 hours. | See also: Recent months at Dum In Mirrie
Date/Time
CST
Temp
°C
App
Temp
°C
Dew
Point
Rel
Hum
%
Delta-T
°C
Wind Press
QNH
hPa
Press
MSL
hPa
Rain
since 9 am
mm
Dir
 
Spd
km/h
Gust
km/h
Spd
kts
Gust
kts
24/02:00pm 33.9 37.1 21.3 47 8.5 S 6 11 3 6 1005.9 - 0.0
24/01:30pm 33.9 36.9 21.3 47 8.5 SSE 7 17 4 9 1006.4 1006.4 0.0
24/01:00pm 34.1 37.6 21.9 49 8.3 SSE 6 11 3 6 1006.8 - 0.0
24/12:30pm 32.8 36.4 22.3 54 7.2 SSW 7 15 4 8 1007.3 1007.3 0.0
24/12:00pm 31.6 36.4 24.5 66 5.0 W 7 15 4 8 1007.9 1007.9 0.0
24/11:30am 31.5 36.9 25.4 70 4.3 WSW 7 13 4 7 1008.8 1008.8 0.0
24/11:00am 30.6 35.1 24.0 68 4.6 W 7 11 4 6 1009.4 - 0.0
24/10:30am 30.7 35.4 23.9 67 4.7 S 6 9 3 5 1009.8 1009.8 0.0
24/10:00am 30.1 35.5 24.5 72 3.9 SSE 4 7 2 4 1009.7 - 0.0
24/09:30am 29.1 34.2 24.0 74 3.5 S 4 7 2 4 1009.5 1009.5 0.0
24/09:00am 28.0 32.7 24.0 79 2.8 SSE 6 7 3 4 1009.2 1009.2 0.0
24/08:30am 27.4 32.5 24.1 82 2.3 S 4 6 2 3 1009.0 1009.0 0.0
24/08:00am 26.9 32.6 24.4 86 1.7 SE 2 6 1 3 1008.6 - 0.0
24/07:30am 25.7 31.2 24.7 94 0.7 S 4 6 2 3 1007.8 1007.8 0.0
24/07:00am 25.0 30.1 24.1 95 0.6 SSE 4 6 2 3 1007.1 - 0.0
24/06:30am 24.9 30.0 24.0 95 0.6 SE 4 6 2 3 1006.8 1006.8 0.0
24/06:00am 24.5 29.2 23.3 93 0.8 ESE 4 4 2 2 1006.7 1006.7 0.0
24/05:30am 24.8 29.8 23.2 91 1.1 SE 2 4 1 2 1006.4 1006.4 0.0
24/05:00am 25.5 30.6 23.4 88 1.4 SE 2 4 1 2 1006.2 - 0.0
24/04:30am 26.1 30.5 22.8 82 2.2 SSE 4 6 2 3 1006.0 1006.0 0.0
24/04:00am 26.4 31.3 23.7 85 1.9 SE 4 7 2 4 1006.1 - 0.0
24/03:30am 26.8 32.5 25.0 90 1.3 SE 4 7 2 4 1006.2 1006.2 0.0
24/03:00am 27.0 32.9 25.4 91 1.1 SSE 4 7 2 4 1006.3 1006.3 0.0
24/02:30am 27.0 33.1 25.6 92 1.0 SE 4 7 2 4 1006.4 1006.4 0.0
24/02:00am 27.1 33.2 25.7 92 1.0 SSE 4 7 2 4 1006.5 - 0.0
24/01:30am 27.1 33.4 25.9 93 0.8 S 4 7 2 4 1006.9 1006.9 0.0
24/01:00am 26.8 32.6 25.2 91 1.1 SSE 4 6 2 3 1007.2 - 0.0
24/12:30am 26.5 32.1 24.3 88 1.5 SSE 2 4 1 2 1007.5 1007.5 0.0
24/12:00am 27.3 33.3 24.9 87 1.7 ESE 2 4 1 2 1007.9 1007.9 0.0
 
Date/Time
CST
Temp
°C
App
Temp
°C
Dew
Point
Rel
Hum
%
Delta-T
°C
Wind Press
QNH
hPa
Press
MSL
hPa
Rain
since 9 am
mm
Dir
 
Spd
km/h
Gust
km/h
Spd
kts
Gust
kts
23/11:30pm 27.9 34.4 25.1 85 2.0 CALM 0 4 0 2 1008.2 1008.2 0.0
23/11:00pm 29.1 34.9 25.1 79 2.8 S 4 6 2 3 1008.3 - 0.0
23/10:30pm 29.6 34.6 25.4 78 3.0 SSW 9 17 5 9 1008.3 1008.3 0.0
23/10:00pm 29.5 34.8 25.3 78 3.0 SSW 7 13 4 7 1008.3 - 0.0
23/09:30pm 29.6 34.3 24.9 76 3.3 SSW 9 15 5 8 1008.2 1008.2 0.0
23/09:00pm 29.9 34.0 25.2 76 3.3 SW 13 19 7 10 1007.6 1007.6 0.0
23/08:30pm 29.8 33.7 24.9 75 3.4 SW 13 20 7 11 1007.1 1007.1 0.0
23/08:00pm 29.9 34.5 24.8 74 3.6 SW 9 19 5 10 1006.9 - 0.0
23/07:30pm 30.2 35.5 25.3 75 3.5 SW 7 15 4 8 1006.5 1006.5 0.0
23/07:00pm 30.0 35.5 24.6 73 3.8 S 4 13 2 7 1006.2 - 0.0
23/06:30pm 30.1 33.8 24.5 72 3.9 W 13 24 7 13 1005.8 1005.8 0.0
23/06:00pm 30.2 33.2 24.6 72 3.9 W 17 22 9 12 1005.5 1005.5 0.0
23/05:30pm 30.5 34.0 24.2 69 4.4 W 13 22 7 12 1005.3 1005.3 0.0
23/05:00pm 30.5 32.9 23.7 67 4.7 W 17 22 9 12 1004.9 - 0.0
23/04:30pm 30.6 33.5 24.5 70 4.3 W 17 22 9 12 1005.0 1005.0 0.0
23/04:00pm 30.9 34.1 24.3 68 4.6 W 15 24 8 13 1005.0 - 0.0
23/03:30pm 30.9 33.6 24.1 67 4.7 W 17 24 9 13 1005.1 1005.1 0.0
23/03:00pm 31.4 34.8 24.0 65 5.2 W 13 22 7 12 1005.4 1005.4 0.0
23/02:30pm 33.7 36.5 20.8 46 8.7 S 7 13 4 7 1005.9 1005.9 0.0
23/02:00pm 33.5 36.5 21.3 48 8.2 S 7 15 4 8 1006.3 - 0.0
23/01:30pm 32.3 36.3 23.8 61 5.9 WSW 9 19 5 10 1006.7 1006.7 0.0
23/01:00pm 32.4 36.6 23.4 59 6.2 SSW 7 13 4 7 1007.2 - 0.0
23/12:30pm 32.9 36.2 21.4 50 7.8 S 6 13 3 7 1007.4 1007.4 0.0
23/12:00pm 32.1 35.0 21.0 52 7.5 S 7 15 4 8 1008.0 1008.0 0.0
23/11:30am 31.7 35.2 22.1 56 6.5 SSE 7 13 4 7 1008.6 1008.6 0.0
23/11:00am 31.2 34.5 21.9 57 6.3 SSE 7 11 4 6 1009.1 - 0.0
23/10:30am 30.6 33.9 21.9 59 5.9 ESE 7 13 4 7 1009.2 1009.2 0.0
23/10:00am 29.7 32.9 21.6 61 5.4 ESE 7 11 4 6 1009.3 - 0.0
23/09:30am 28.8 33.2 23.5 73 3.6 ESE 6 9 3 5 1009.4 1009.4 0.0
23/09:00am 28.1 32.7 23.2 74 3.4 SE 4 7 2 4 1009.6 1009.6 0.0
23/08:30am 27.0 31.7 23.3 80 2.5 SE 4 6 2 3 1009.3 1009.3 0.0
23/08:00am 25.7 31.3 23.6 88 1.4 CALM 0 0 0 0 1009.3 - 0.0
23/07:30am 24.2 28.9 22.6 91 1.1 ESE 2 4 1 2 1008.9 1008.9 0.0
23/07:00am 24.0 27.4 21.7 87 1.5 E 6 7 3 4 1008.7 - 0.0
23/06:30am 23.2 27.0 21.6 91 1.1 ESE 4 7 2 4 1008.5 1008.5 0.0
23/06:00am 23.8 28.7 22.4 92 0.9 CALM 0 4 0 2 1008.5 1008.5 0.0
23/05:30am 24.2 28.9 22.6 91 1.1 SE 2 6 1 3 1008.3 1008.3 0.0
23/05:00am 24.6 29.1 22.3 87 1.5 S 2 4 1 2 1007.9 - 0.0
23/04:30am 24.7 29.0 23.3 92 1.0 S 6 7 3 4 1007.8 1007.8 0.0
23/04:00am 25.2 30.3 24.0 93 0.8 SSE 4 4 2 2 1007.5 - 0.0
23/03:30am 25.4 30.9 24.7 96 0.5 S 4 7 2 4 1007.4 1007.4 0.0
23/03:00am - - - - - SSE 4 6 2 3 1007.6 1007.6 0.0
23/02:30am 23.8 28.0 22.4 92 0.9 SSE 4 4 2 2 1007.8 1007.8 0.0
23/02:00am 23.8 28.0 22.4 92 0.9 SSE 4 4 2 2 1008.2 - 0.0
23/01:30am 23.9 27.8 21.8 88 1.4 SE 4 6 2 3 1008.5 1008.5 0.0
23/01:00am 24.3 28.2 21.2 83 2.0 ESE 2 2 1 1 1009.1 - 0.0
23/12:30am 25.8 29.1 21.5 77 2.9 E 6 11 3 6 1009.3 1009.3 0.0
23/12:00am 24.1 28.7 21.8 87 1.5 CALM 0 0 0 0 1009.3 1009.3 0.0
 
Date/Time
CST
Temp
°C
App
Temp
°C
Dew
Point
Rel
Hum
%
Delta-T
°C
Wind Press
QNH
hPa
Press
MSL
hPa
Rain
since 9 am
mm
Dir
 
Spd
km/h
Gust
km/h
Spd
kts
Gust
kts
22/11:30pm 24.1 28.2 21.6 86 1.7 ESE 2 4 1 2 1009.5 1009.5 0.0
22/11:00pm 24.5 28.5 21.4 83 2.0 E 2 4 1 2 1009.5 - 0.0
22/10:30pm 25.0 28.9 21.1 79 2.6 ESE 2 4 1 2 1009.5 1009.5 0.0
22/10:00pm 26.2 30.0 21.6 76 3.1 SE 4 6 2 3 1009.4 - 0.0
22/09:30pm 26.9 30.9 22.1 75 3.2 E 4 7 2 4 1009.3 1009.3 0.0
22/09:00pm 27.4 31.3 21.9 72 3.7 E 4 6 2 3 1009.1 1009.1 0.0
22/08:30pm 28.8 32.7 22.5 68 4.3 E 6 9 3 5 1008.9 1008.9 0.0
22/08:00pm 27.4 32.1 22.6 75 3.2 SE 2 4 1 2 1008.6 - 0.0
22/07:30pm 28.3 32.8 23.0 73 3.6 S 4 6 2 3 1008.2 1008.2 0.0
22/07:00pm 28.0 32.6 22.5 72 3.7 S 2 4 1 2 1007.8 - 0.0
22/06:30pm 29.8 34.3 22.3 64 5.1 S 2 4 1 2 1007.5 1007.5 0.0
22/06:00pm 31.5 35.4 21.1 54 7.0 S 2 9 1 5 1007.2 1007.2 0.0
22/05:30pm 32.8 36.9 21.6 51 7.6 S 2 6 1 3 1006.9 1006.9 0.0
22/05:00pm 32.9 36.1 20.4 47 8.3 SSW 4 7 2 4 1006.7 - 0.0
22/04:30pm 33.2 36.1 20.7 47 8.4 S 6 11 3 6 1006.1 1006.1 0.0
22/04:00pm 33.2 35.6 19.7 45 8.9 SSE 6 9 3 5 1006.1 - 0.0
22/03:30pm 33.4 35.9 20.2 46 8.8 SSE 7 13 4 7 1006.3 1006.3 0.0
22/03:00pm 33.9 36.6 20.6 45 8.9 E 7 11 4 6 1006.6 1006.6 0.0
22/02:30pm 33.5 35.3 20.3 46 8.8 E 11 17 6 9 1007.1 1007.1 0.0
22/02:00pm 33.5 35.8 20.6 46 8.6 E 9 15 5 8 1007.5 - 0.0
22/01:30pm 33.8 36.0 21.2 47 8.5 E 11 19 6 10 1008.0 1008.0 0.0
22/01:00pm 33.2 34.5 19.3 44 9.1 ESE 11 19 6 10 1008.4 - 0.0
22/12:30pm 33.0 34.2 19.8 45 8.7 ESE 13 22 7 12 1009.0 1009.0 0.0
22/12:00pm 32.1 34.1 20.0 48 8.0 ESE 9 15 5 8 1009.6 1009.6 0.0
22/11:30am 31.3 33.7 20.9 54 7.0 ESE 9 13 5 7 1010.2 1010.2 0.0
22/11:00am 30.9 32.5 20.8 55 6.7 E 13 19 7 10 1010.9 - 0.0
22/10:30am 30.6 33.3 22.2 61 5.7 E 11 19 6 10 1011.2 1011.2 0.0
22/10:00am 29.6 31.5 22.1 64 5.1 E 15 20 8 11 1011.4 - 0.0
22/09:30am 29.5 31.1 22.2 65 4.9 E 17 28 9 15 1011.1 1011.1 0.0
22/09:00am 28.8 30.8 22.3 68 4.4 E 15 26 8 14 1010.9 1010.9 0.0
22/08:30am 27.5 31.0 22.9 76 3.1 E 9 17 5 9 1010.7 1010.7 0.0
22/08:00am 26.8 29.5 22.2 76 3.1 E 11 17 6 9 1010.3 - 0.0
22/07:30am 26.4 29.3 21.8 76 3.1 E 9 15 5 8 1009.9 1009.9 0.0
22/07:00am 26.0 28.7 21.4 76 3.1 E 9 17 5 9 1009.5 - 0.0
22/06:30am 25.9 29.3 22.0 79 2.6 ESE 7 11 4 6 1009.3 1009.3 0.0
22/06:00am 26.2 30.1 22.5 80 2.5 SE 6 9 3 5 1009.1 1009.1 0.0
22/05:30am 26.7 30.6 22.5 78 2.8 SSE 6 11 3 6 1008.9 1008.9 0.0
22/05:00am 26.9 31.1 23.2 80 2.5 S 6 11 3 6 1008.9 - 0.0
22/04:30am 27.4 32.9 24.7 85 1.9 S 4 7 2 4 1008.6 1008.6 0.0
22/04:00am 28.2 33.7 24.6 81 2.5 S 4 9 2 5 1008.6 - 0.0
22/03:30am 28.8 33.5 25.0 80 2.7 SSW 9 15 5 8 1008.7 1008.7 0.0
22/03:00am 28.8 32.9 24.6 78 2.9 SSW 11 17 6 9 1008.7 1008.7 0.0
22/02:30am 28.9 33.3 24.5 77 3.1 SW 9 15 5 8 1008.9 1008.9 0.0
22/02:00am 28.6 32.9 24.2 77 3.1 SW 9 15 5 8 1009.1 - 0.0
22/01:30am 28.5 33.4 24.7 80 2.7 SSW 7 11 4 6 1009.5 1009.5 0.0
22/01:00am 26.8 32.6 25.2 91 1.1 SSW 4 9 2 5 1010.1 - 0.0
22/12:30am 26.1 32.7 25.2 95 0.6 CALM 0 4 0 2 1010.3 1010.3 0.0
22/12:00am 25.7 31.3 24.8 95 0.6 S 4 4 2 2 1010.5 1010.5 0.0
 
Date/Time
CST
Temp
°C
App
Temp
°C
Dew
Point
Rel
Hum
%
Delta-T
°C
Wind Press
QNH
hPa
Press
MSL
hPa
Rain
since 9 am
mm
Dir
 
Spd
km/h
Gust
km/h
Spd
kts
Gust
kts
21/11:30pm 25.6 31.8 24.6 94 0.7 CALM 0 0 0 0 1010.7 1010.7 0.0
21/11:00pm 25.7 31.8 24.5 93 0.8 CALM 0 0 0 0 1010.6 - 0.0
21/10:30pm 25.9 32.0 24.5 92 1.0 CALM 0 0 0 0 1010.4 1010.4 0.0
21/10:00pm 26.2 32.3 24.4 90 1.2 CALM 0 0 0 0 1010.5 - 0.0
21/09:30pm 26.4 32.5 24.4 89 1.4 CALM 0 0 0 0 1010.4 1010.4 0.0
21/09:00pm 26.9 32.7 24.0 84 2.0 CALM 0 0 0 0 1010.2 1010.2 0.0
21/08:30pm 27.9 33.7 23.9 79 2.8 CALM 0 0 0 0 1010.0 1010.0 0.0
21/08:00pm 29.1 34.2 24.0 74 3.5 ENE 4 9 2 5 1009.5 - 0.0
21/07:30pm 29.1 33.5 23.8 73 3.7 NNE 7 11 4 6 1009.2 1009.2 0.0
21/07:00pm 29.3 33.1 23.5 71 4.0 NNE 9 13 5 7 1008.9 - 0.0
21/06:30pm 29.4 33.6 23.4 70 4.1 NNE 7 15 4 8 1008.8 1008.8 0.0
21/06:00pm 29.6 33.3 23.3 69 4.3 NNE 9 15 5 8 1008.6 1008.6 0.0
21/05:30pm 29.9 33.3 23.3 67 4.5 NNE 11 17 6 9 1008.5 1008.5 0.0
21/05:00pm 30.7 34.2 23.6 66 4.9 NNE 11 19 6 10 1008.2 - 0.0
21/04:30pm 31.5 34.4 22.5 59 6.2 N 11 19 6 10 1008.1 1008.1 0.0
21/04:00pm 33.1 34.9 19.6 45 8.9 ENE 9 15 5 8 1008.0 - 0.0
21/03:30pm 33.6 34.7 18.9 41 9.6 ENE 11 17 6 9 1008.0 1008.0 0.0
21/03:00pm 33.5 34.9 19.6 44 9.2 ENE 11 20 6 11 1008.1 1008.1 0.0
21/02:30pm 33.4 34.4 19.5 44 9.2 NE 13 22 7 12 1008.2 1008.2 0.0

Other Formats:

Comma delimited format used in spreadsheet applications
http://www.bom.gov.au/fwo/IDD60801/IDD60801.94116.axf

JavaScript Object Notation format (JSON) in row-major order
http://www.bom.gov.au/fwo/IDD60801/IDD60801.94116.json